sensor_id;sensor_type;location;lat;lon;timestamp;P1;durP1;ratioP1;P2;durP2;ratioP2
55222;SDS011;41090;48.632;12.428;2023-01-08T00:01:14;52.07;;;24.90;;
55222;SDS011;41090;48.632;12.428;2023-01-08T00:03:40;41.47;;;22.83;;
55222;SDS011;41090;48.632;12.428;2023-01-08T00:06:06;57.67;;;24.70;;
55222;SDS011;41090;48.632;12.428;2023-01-08T00:08:32;88.73;;;24.53;;
55222;SDS011;41090;48.632;12.428;2023-01-08T00:10:57;120.83;;;23.60;;
55222;SDS011;41090;48.632;12.428;2023-01-08T00:13:24;42.97;;;24.90;;
55222;SDS011;41090;48.632;12.428;2023-01-08T00:15:49;63.87;;;24.23;;
55222;SDS011;41090;48.632;12.428;2023-01-08T00:18:15;69.00;;;23.87;;
55222;SDS011;41090;48.632;12.428;2023-01-08T00:20:40;98.20;;;22.77;;
55222;SDS011;41090;48.632;12.428;2023-01-08T00:23:09;49.50;;;21.93;;
55222;SDS011;41090;48.632;12.428;2023-01-08T00:25:34;46.70;;;21.97;;
55222;SDS011;41090;48.632;12.428;2023-01-08T00:27:59;27.37;;;21.63;;
55222;SDS011;41090;48.632;12.428;2023-01-08T00:30:24;37.87;;;20.53;;
55222;SDS011;41090;48.632;12.428;2023-01-08T00:32:50;86.87;;;20.70;;
55222;SDS011;41090;48.632;12.428;2023-01-08T00:35:15;67.23;;;20.57;;
55222;SDS011;41090;48.632;12.428;2023-01-08T00:37:40;63.07;;;18.63;;
55222;SDS011;41090;48.632;12.428;2023-01-08T00:40:07;20.40;;;18.30;;
55222;SDS011;41090;48.632;12.428;2023-01-08T00:42:33;44.00;;;18.37;;
55222;SDS011;41090;48.632;12.428;2023-01-08T00:44:58;57.10;;;18.30;;
55222;SDS011;41090;48.632;12.428;2023-01-08T00:47:25;91.07;;;18.33;;
55222;SDS011;41090;48.632;12.428;2023-01-08T00:49:51;244.93;;;23.37;;
55222;SDS011;41090;48.632;12.428;2023-01-08T00:52:18;64.60;;;20.10;;
55222;SDS011;41090;48.632;12.428;2023-01-08T00:54:43;117.57;;;22.30;;
55222;SDS011;41090;48.632;12.428;2023-01-08T00:57:09;25.37;;;19.50;;
55222;SDS011;41090;48.632;12.428;2023-01-08T00:59:34;160.70;;;23.87;;
55222;SDS011;41090;48.632;12.428;2023-01-08T01:01:59;39.70;;;20.23;;
55222;SDS011;41090;48.632;12.428;2023-01-08T01:04:24;40.53;;;19.17;;
55222;SDS011;41090;48.632;12.428;2023-01-08T01:06:50;28.67;;;19.17;;
55222;SDS011;41090;48.632;12.428;2023-01-08T01:09:15;81.93;;;19.80;;
55222;SDS011;41090;48.632;12.428;2023-01-08T01:11:40;40.47;;;18.00;;
55222;SDS011;41090;48.632;12.428;2023-01-08T01:14:06;102.80;;;20.87;;
55222;SDS011;41090;48.632;12.428;2023-01-08T01:16:31;79.20;;;20.50;;
55222;SDS011;41090;48.632;12.428;2023-01-08T01:18:58;87.17;;;20.73;;
55222;SDS011;41090;48.632;12.428;2023-01-08T01:21:25;82.33;;;20.73;;
55222;SDS011;41090;48.632;12.428;2023-01-08T01:23:58;100.93;;;21.17;;
55222;SDS011;41090;48.632;12.428;2023-01-08T01:26:24;29.13;;;18.20;;
55222;SDS011;41090;48.632;12.428;2023-01-08T01:28:50;25.80;;;18.80;;
55222;SDS011;41090;48.632;12.428;2023-01-08T01:31:16;30.73;;;18.23;;
55222;SDS011;41090;48.632;12.428;2023-01-08T01:33:42;25.60;;;18.27;;
55222;SDS011;41090;48.632;12.428;2023-01-08T01:36:08;24.40;;;19.70;;
55222;SDS011;41090;48.632;12.428;2023-01-08T01:38:34;37.10;;;19.60;;
55222;SDS011;41090;48.632;12.428;2023-01-08T01:40:59;66.77;;;20.90;;
55222;SDS011;41090;48.632;12.428;2023-01-08T01:43:36;67.90;;;21.23;;
55222;SDS011;41090;48.632;12.428;2023-01-08T01:46:02;25.37;;;19.90;;
55222;SDS011;41090;48.632;12.428;2023-01-08T01:48:27;159.60;;;24.20;;
55222;SDS011;41090;48.632;12.428;2023-01-08T01:50:52;147.77;;;24.47;;
55222;SDS011;41090;48.632;12.428;2023-01-08T01:53:26;29.67;;;21.03;;
55222;SDS011;41090;48.632;12.428;2023-01-08T01:55:52;34.47;;;19.73;;
55222;SDS011;41090;48.632;12.428;2023-01-08T02:00:42;52.37;;;20.57;;
55222;SDS011;41090;48.632;12.428;2023-01-08T02:03:12;61.13;;;21.43;;
55222;SDS011;41090;48.632;12.428;2023-01-08T02:05:40;49.00;;;21.53;;
55222;SDS011;41090;48.632;12.428;2023-01-08T02:08:11;90.00;;;23.73;;
55222;SDS011;41090;48.632;12.428;2023-01-08T02:10:53;42.60;;;22.13;;
55222;SDS011;41090;48.632;12.428;2023-01-08T02:13:32;65.67;;;21.63;;
55222;SDS011;41090;48.632;12.428;2023-01-08T02:20:56;50.57;;;18.17;;
55222;SDS011;41090;48.632;12.428;2023-01-08T02:26:14;334.00;;;23.93;;
55222;SDS011;41090;48.632;12.428;2023-01-08T02:28:44;80.13;;;19.17;;
55222;SDS011;41090;48.632;12.428;2023-01-08T02:31:11;50.57;;;19.83;;
55222;SDS011;41090;48.632;12.428;2023-01-08T02:33:37;105.10;;;19.70;;
55222;SDS011;41090;48.632;12.428;2023-01-08T02:38:37;88.27;;;20.73;;
55222;SDS011;41090;48.632;12.428;2023-01-08T02:41:08;114.60;;;21.63;;
55222;SDS011;41090;48.632;12.428;2023-01-08T02:43:35;169.80;;;21.93;;
55222;SDS011;41090;48.632;12.428;2023-01-08T02:46:03;72.53;;;20.57;;
55222;SDS011;41090;48.632;12.428;2023-01-08T02:48:35;25.77;;;18.63;;
55222;SDS011;41090;48.632;12.428;2023-01-08T02:53:32;136.90;;;20.30;;
55222;SDS011;41090;48.632;12.428;2023-01-08T02:56:01;53.80;;;17.70;;
55222;SDS011;41090;48.632;12.428;2023-01-08T02:58:28;18.70;;;16.27;;
55222;SDS011;41090;48.632;12.428;2023-01-08T03:00:55;39.77;;;16.07;;
55222;SDS011;41090;48.632;12.428;2023-01-08T03:03:21;90.17;;;17.30;;
55222;SDS011;41090;48.632;12.428;2023-01-08T03:05:49;24.27;;;15.90;;
55222;SDS011;41090;48.632;12.428;2023-01-08T03:08:15;53.13;;;16.93;;
55222;SDS011;41090;48.632;12.428;2023-01-08T03:10:43;23.93;;;16.87;;
55222;SDS011;41090;48.632;12.428;2023-01-08T03:13:14;19.47;;;16.50;;
55222;SDS011;41090;48.632;12.428;2023-01-08T03:15:45;34.47;;;17.00;;
55222;SDS011;41090;48.632;12.428;2023-01-08T03:18:14;46.97;;;17.30;;
55222;SDS011;41090;48.632;12.428;2023-01-08T03:20:40;31.40;;;16.63;;
55222;SDS011;41090;48.632;12.428;2023-01-08T03:23:08;59.33;;;18.27;;
55222;SDS011;41090;48.632;12.428;2023-01-08T03:25:36;33.80;;;16.07;;
55222;SDS011;41090;48.632;12.428;2023-01-08T03:28:03;47.00;;;14.97;;
55222;SDS011;41090;48.632;12.428;2023-01-08T03:30:29;77.80;;;17.23;;
55222;SDS011;41090;48.632;12.428;2023-01-08T03:32:56;53.53;;;15.47;;
55222;SDS011;41090;48.632;12.428;2023-01-08T03:35:22;45.60;;;15.93;;
55222;SDS011;41090;48.632;12.428;2023-01-08T03:37:50;57.80;;;16.37;;
55222;SDS011;41090;48.632;12.428;2023-01-08T03:41:00;35.37;;;15.80;;
55222;SDS011;41090;48.632;12.428;2023-01-08T03:43:05;44.50;;;15.97;;
55222;SDS011;41090;48.632;12.428;2023-01-08T03:45:30;40.00;;;15.40;;
55222;SDS011;41090;48.632;12.428;2023-01-08T03:47:56;48.07;;;15.20;;
55222;SDS011;41090;48.632;12.428;2023-01-08T03:50:24;33.27;;;16.47;;
55222;SDS011;41090;48.632;12.428;2023-01-08T03:52:50;125.53;;;17.40;;
55222;SDS011;41090;48.632;12.428;2023-01-08T03:55:15;124.33;;;17.90;;
55222;SDS011;41090;48.632;12.428;2023-01-08T03:57:40;27.80;;;14.93;;
55222;SDS011;41090;48.632;12.428;2023-01-08T04:00:07;39.93;;;15.70;;
55222;SDS011;41090;48.632;12.428;2023-01-08T04:02:32;63.97;;;16.30;;
55222;SDS011;41090;48.632;12.428;2023-01-08T04:04:57;42.83;;;15.00;;
55222;SDS011;41090;48.632;12.428;2023-01-08T04:07:23;62.23;;;15.27;;
55222;SDS011;41090;48.632;12.428;2023-01-08T04:09:50;33.70;;;14.80;;
55222;SDS011;41090;48.632;12.428;2023-01-08T04:12:15;44.07;;;15.67;;
55222;SDS011;41090;48.632;12.428;2023-01-08T04:14:40;35.43;;;14.47;;
55222;SDS011;41090;48.632;12.428;2023-01-08T04:17:05;17.57;;;14.30;;
55222;SDS011;41090;48.632;12.428;2023-01-08T04:19:31;35.50;;;15.23;;
55222;SDS011;41090;48.632;12.428;2023-01-08T04:21:57;16.47;;;14.30;;
55222;SDS011;41090;48.632;12.428;2023-01-08T04:24:22;31.90;;;14.87;;
55222;SDS011;41090;48.632;12.428;2023-01-08T04:26:48;29.73;;;13.50;;
55222;SDS011;41090;48.632;12.428;2023-01-08T04:29:13;40.97;;;15.23;;
55222;SDS011;41090;48.632;12.428;2023-01-08T04:31:38;39.90;;;13.70;;
55222;SDS011;41090;48.632;12.428;2023-01-08T04:34:04;26.73;;;13.47;;
55222;SDS011;41090;48.632;12.428;2023-01-08T04:36:29;86.60;;;15.03;;
55222;SDS011;41090;48.632;12.428;2023-01-08T04:38:54;65.10;;;13.87;;
55222;SDS011;41090;48.632;12.428;2023-01-08T04:41:19;15.23;;;13.67;;
55222;SDS011;41090;48.632;12.428;2023-01-08T04:43:45;16.20;;;13.37;;
55222;SDS011;41090;48.632;12.428;2023-01-08T04:46:10;46.77;;;14.80;;
55222;SDS011;41090;48.632;12.428;2023-01-08T04:48:36;44.37;;;14.30;;
55222;SDS011;41090;48.632;12.428;2023-01-08T04:51:02;73.87;;;14.63;;
55222;SDS011;41090;48.632;12.428;2023-01-08T04:53:28;46.53;;;13.70;;
55222;SDS011;41090;48.632;12.428;2023-01-08T04:55:53;29.83;;;14.57;;
55222;SDS011;41090;48.632;12.428;2023-01-08T04:58:18;64.47;;;14.97;;
55222;SDS011;41090;48.632;12.428;2023-01-08T05:00:44;40.00;;;14.43;;
55222;SDS011;41090;48.632;12.428;2023-01-08T05:03:09;83.97;;;15.57;;
55222;SDS011;41090;48.632;12.428;2023-01-08T05:05:34;26.93;;;14.27;;
55222;SDS011;41090;48.632;12.428;2023-01-08T05:07:59;37.13;;;14.33;;
55222;SDS011;41090;48.632;12.428;2023-01-08T05:10:25;88.50;;;15.50;;
55222;SDS011;41090;48.632;12.428;2023-01-08T05:12:50;111.60;;;15.70;;
55222;SDS011;41090;48.632;12.428;2023-01-08T05:15:15;102.03;;;15.83;;
55222;SDS011;41090;48.632;12.428;2023-01-08T05:17:40;55.70;;;15.67;;
55222;SDS011;41090;48.632;12.428;2023-01-08T05:20:06;181.97;;;18.00;;
55222;SDS011;41090;48.632;12.428;2023-01-08T05:22:32;130.23;;;15.83;;
55222;SDS011;41090;48.632;12.428;2023-01-08T05:24:57;50.53;;;14.53;;
55222;SDS011;41090;48.632;12.428;2023-01-08T05:27:22;64.60;;;14.80;;
55222;SDS011;41090;48.632;12.428;2023-01-08T05:29:47;86.73;;;14.50;;
55222;SDS011;41090;48.632;12.428;2023-01-08T05:32:14;67.03;;;14.97;;
55222;SDS011;41090;48.632;12.428;2023-01-08T05:34:39;32.20;;;14.80;;
55222;SDS011;41090;48.632;12.428;2023-01-08T05:37:04;21.13;;;13.57;;
55222;SDS011;41090;48.632;12.428;2023-01-08T05:39:29;118.37;;;16.23;;
55222;SDS011;41090;48.632;12.428;2023-01-08T05:41:54;84.93;;;14.57;;
55222;SDS011;41090;48.632;12.428;2023-01-08T05:44:20;97.87;;;16.77;;
55222;SDS011;41090;48.632;12.428;2023-01-08T05:46:45;148.13;;;16.67;;
55222;SDS011;41090;48.632;12.428;2023-01-08T05:49:10;93.20;;;15.40;;
55222;SDS011;41090;48.632;12.428;2023-01-08T05:51:35;216.57;;;18.37;;
55222;SDS011;41090;48.632;12.428;2023-01-08T05:54:00;106.33;;;16.93;;
55222;SDS011;41090;48.632;12.428;2023-01-08T05:56:26;46.80;;;16.97;;
55222;SDS011;41090;48.632;12.428;2023-01-08T05:58:52;237.23;;;21.10;;
55222;SDS011;41090;48.632;12.428;2023-01-08T06:01:23;116.77;;;17.73;;
55222;SDS011;41090;48.632;12.428;2023-01-08T06:03:48;177.10;;;18.20;;
55222;SDS011;41090;48.632;12.428;2023-01-08T06:06:14;149.33;;;17.70;;
55222;SDS011;41090;48.632;12.428;2023-01-08T06:08:41;90.60;;;16.33;;
55222;SDS011;41090;48.632;12.428;2023-01-08T06:11:07;161.13;;;17.80;;
55222;SDS011;41090;48.632;12.428;2023-01-08T06:13:33;77.60;;;17.20;;
55222;SDS011;41090;48.632;12.428;2023-01-08T06:15:59;176.97;;;18.10;;
55222;SDS011;41090;48.632;12.428;2023-01-08T06:18:24;20.37;;;15.33;;
55222;SDS011;41090;48.632;12.428;2023-01-08T06:20:51;21.33;;;14.87;;
55222;SDS011;41090;48.632;12.428;2023-01-08T06:23:17;116.43;;;16.53;;
55222;SDS011;41090;48.632;12.428;2023-01-08T06:25:42;161.20;;;17.60;;
55222;SDS011;41090;48.632;12.428;2023-01-08T06:28:07;30.53;;;14.67;;
55222;SDS011;41090;48.632;12.428;2023-01-08T06:30:32;17.17;;;14.57;;
55222;SDS011;41090;48.632;12.428;2023-01-08T06:32:58;50.77;;;14.43;;
55222;SDS011;41090;48.632;12.428;2023-01-08T06:35:24;35.20;;;14.33;;
55222;SDS011;41090;48.632;12.428;2023-01-08T06:37:49;22.97;;;14.50;;
55222;SDS011;41090;48.632;12.428;2023-01-08T06:40:14;30.73;;;15.07;;
55222;SDS011;41090;48.632;12.428;2023-01-08T06:42:39;21.63;;;17.00;;
55222;SDS011;41090;48.632;12.428;2023-01-08T06:45:05;20.10;;;16.40;;
55222;SDS011;41090;48.632;12.428;2023-01-08T06:47:31;18.40;;;15.40;;
55222;SDS011;41090;48.632;12.428;2023-01-08T06:49:56;25.77;;;13.93;;
55222;SDS011;41090;48.632;12.428;2023-01-08T06:52:23;15.50;;;13.93;;
55222;SDS011;41090;48.632;12.428;2023-01-08T06:54:48;18.87;;;14.70;;
55222;SDS011;41090;48.632;12.428;2023-01-08T06:57:13;30.93;;;14.83;;
55222;SDS011;41090;48.632;12.428;2023-01-08T06:59:38;16.20;;;14.47;;
55222;SDS011;41090;48.632;12.428;2023-01-08T07:02:04;31.43;;;19.03;;
55222;SDS011;41090;48.632;12.428;2023-01-08T07:04:29;30.40;;;24.10;;
55222;SDS011;41090;48.632;12.428;2023-01-08T07:06:54;21.43;;;18.57;;
55222;SDS011;41090;48.632;12.428;2023-01-08T07:09:19;15.47;;;14.07;;
55222;SDS011;41090;48.632;12.428;2023-01-08T07:11:44;15.43;;;13.93;;
55222;SDS011;41090;48.632;12.428;2023-01-08T07:14:10;15.17;;;13.77;;
55222;SDS011;41090;48.632;12.428;2023-01-08T07:16:35;14.37;;;12.90;;
55222;SDS011;41090;48.632;12.428;2023-01-08T07:19:01;14.97;;;13.53;;
55222;SDS011;41090;48.632;12.428;2023-01-08T07:21:28;15.77;;;14.20;;
55222;SDS011;41090;48.632;12.428;2023-01-08T07:23:53;14.07;;;12.67;;
55222;SDS011;41090;48.632;12.428;2023-01-08T07:26:18;16.53;;;13.87;;
55222;SDS011;41090;48.632;12.428;2023-01-08T07:28:44;17.93;;;15.17;;
55222;SDS011;41090;48.632;12.428;2023-01-08T07:31:09;17.83;;;16.13;;
55222;SDS011;41090;48.632;12.428;2023-01-08T07:33:34;17.50;;;15.80;;
55222;SDS011;41090;48.632;12.428;2023-01-08T07:35:59;17.60;;;16.00;;
55222;SDS011;41090;48.632;12.428;2023-01-08T07:38:25;19.17;;;17.10;;
55222;SDS011;41090;48.632;12.428;2023-01-08T07:40:50;30.40;;;18.30;;
55222;SDS011;41090;48.632;12.428;2023-01-08T07:43:15;21.90;;;17.20;;
55222;SDS011;41090;48.632;12.428;2023-01-08T07:45:40;19.73;;;17.70;;
55222;SDS011;41090;48.632;12.428;2023-01-08T07:48:06;19.60;;;17.47;;
55222;SDS011;41090;48.632;12.428;2023-01-08T07:50:31;19.03;;;17.03;;
55222;SDS011;41090;48.632;12.428;2023-01-08T07:53:00;17.67;;;15.97;;
55222;SDS011;41090;48.632;12.428;2023-01-08T07:55:26;18.33;;;16.53;;
55222;SDS011;41090;48.632;12.428;2023-01-08T07:57:52;18.83;;;16.83;;
55222;SDS011;41090;48.632;12.428;2023-01-08T08:00:17;15.13;;;13.73;;
55222;SDS011;41090;48.632;12.428;2023-01-08T08:02:43;14.73;;;13.30;;
55222;SDS011;41090;48.632;12.428;2023-01-08T08:05:08;14.47;;;13.07;;
55222;SDS011;41090;48.632;12.428;2023-01-08T08:07:33;13.20;;;12.03;;
55222;SDS011;41090;48.632;12.428;2023-01-08T08:10:00;12.00;;;10.90;;
55222;SDS011;41090;48.632;12.428;2023-01-08T08:12:25;13.17;;;11.97;;
55222;SDS011;41090;48.632;12.428;2023-01-08T08:14:50;11.67;;;10.67;;
55222;SDS011;41090;48.632;12.428;2023-01-08T08:17:16;12.57;;;11.43;;
55222;SDS011;41090;48.632;12.428;2023-01-08T08:19:41;12.47;;;11.27;;
55222;SDS011;41090;48.632;12.428;2023-01-08T08:22:08;12.97;;;11.77;;
55222;SDS011;41090;48.632;12.428;2023-01-08T08:24:33;13.03;;;11.73;;
55222;SDS011;41090;48.632;12.428;2023-01-08T08:26:58;13.33;;;12.13;;
55222;SDS011;41090;48.632;12.428;2023-01-08T08:29:24;17.73;;;16.07;;
55222;SDS011;41090;48.632;12.428;2023-01-08T08:31:49;17.90;;;16.20;;
55222;SDS011;41090;48.632;12.428;2023-01-08T08:34:14;17.20;;;15.50;;
55222;SDS011;41090;48.632;12.428;2023-01-08T08:36:39;18.30;;;16.40;;
55222;SDS011;41090;48.632;12.428;2023-01-08T08:39:04;15.67;;;14.27;;
55222;SDS011;41090;48.632;12.428;2023-01-08T08:41:30;15.57;;;14.07;;
55222;SDS011;41090;48.632;12.428;2023-01-08T08:43:55;13.90;;;12.57;;
55222;SDS011;41090;48.632;12.428;2023-01-08T08:46:20;14.17;;;12.73;;
55222;SDS011;41090;48.632;12.428;2023-01-08T08:48:45;14.73;;;13.33;;
55222;SDS011;41090;48.632;12.428;2023-01-08T08:51:11;14.87;;;13.47;;
55222;SDS011;41090;48.632;12.428;2023-01-08T08:53:37;15.37;;;13.77;;
55222;SDS011;41090;48.632;12.428;2023-01-08T08:56:02;18.17;;;16.13;;
55222;SDS011;41090;48.632;12.428;2023-01-08T08:58:27;17.60;;;16.00;;
55222;SDS011;41090;48.632;12.428;2023-01-08T09:00:52;16.57;;;13.60;;
55222;SDS011;41090;48.632;12.428;2023-01-08T09:03:18;13.53;;;12.07;;
55222;SDS011;41090;48.632;12.428;2023-01-08T09:05:43;13.53;;;12.23;;
55222;SDS011;41090;48.632;12.428;2023-01-08T09:08:09;13.40;;;12.10;;
55222;SDS011;41090;48.632;12.428;2023-01-08T09:10:35;17.93;;;16.00;;
55222;SDS011;41090;48.632;12.428;2023-01-08T09:13:00;16.37;;;14.73;;
55222;SDS011;41090;48.632;12.428;2023-01-08T09:15:26;17.20;;;15.40;;
55222;SDS011;41090;48.632;12.428;2023-01-08T09:17:55;17.23;;;15.43;;
55222;SDS011;41090;48.632;12.428;2023-01-08T09:20:21;15.07;;;13.57;;
55222;SDS011;41090;48.632;12.428;2023-01-08T09:22:46;12.37;;;11.27;;
55222;SDS011;41090;48.632;12.428;2023-01-08T09:25:11;13.57;;;12.27;;
55222;SDS011;41090;48.632;12.428;2023-01-08T09:27:36;14.27;;;12.87;;
55222;SDS011;41090;48.632;12.428;2023-01-08T09:30:02;15.43;;;13.93;;
55222;SDS011;41090;48.632;12.428;2023-01-08T09:32:27;15.17;;;13.67;;
55222;SDS011;41090;48.632;12.428;2023-01-08T09:34:52;16.10;;;14.47;;
55222;SDS011;41090;48.632;12.428;2023-01-08T09:37:17;18.70;;;15.83;;
55222;SDS011;41090;48.632;12.428;2023-01-08T09:39:42;19.90;;;14.83;;
55222;SDS011;41090;48.632;12.428;2023-01-08T09:42:09;15.03;;;12.60;;
55222;SDS011;41090;48.632;12.428;2023-01-08T09:44:39;14.20;;;12.80;;
55222;SDS011;41090;48.632;12.428;2023-01-08T09:47:19;17.47;;;13.63;;
55222;SDS011;41090;48.632;12.428;2023-01-08T09:49:45;14.37;;;12.97;;
55222;SDS011;41090;48.632;12.428;2023-01-08T09:52:12;12.90;;;11.70;;
55222;SDS011;41090;48.632;12.428;2023-01-08T09:54:38;14.00;;;12.67;;
55222;SDS011;41090;48.632;12.428;2023-01-08T09:57:04;12.77;;;11.57;;
55222;SDS011;41090;48.632;12.428;2023-01-08T09:59:29;13.97;;;12.67;;
55222;SDS011;41090;48.632;12.428;2023-01-08T10:01:55;13.07;;;11.77;;
55222;SDS011;41090;48.632;12.428;2023-01-08T10:04:21;12.87;;;11.57;;
55222;SDS011;41090;48.632;12.428;2023-01-08T10:06:53;13.13;;;11.93;;
55222;SDS011;41090;48.632;12.428;2023-01-08T10:09:24;13.27;;;12.00;;
55222;SDS011;41090;48.632;12.428;2023-01-08T10:11:50;12.60;;;11.43;;
55222;SDS011;41090;48.632;12.428;2023-01-08T10:14:25;13.23;;;11.93;;
55222;SDS011;41090;48.632;12.428;2023-01-08T10:16:56;12.87;;;11.67;;
55222;SDS011;41090;48.632;12.428;2023-01-08T10:19:22;12.30;;;11.20;;
55222;SDS011;41090;48.632;12.428;2023-01-08T10:21:48;12.30;;;11.20;;
55222;SDS011;41090;48.632;12.428;2023-01-08T10:24:14;12.60;;;11.40;;
55222;SDS011;41090;48.632;12.428;2023-01-08T10:26:39;14.70;;;13.20;;
55222;SDS011;41090;48.632;12.428;2023-01-08T10:29:11;15.83;;;14.33;;
55222;SDS011;41090;48.632;12.428;2023-01-08T10:31:38;15.30;;;13.90;;
55222;SDS011;41090;48.632;12.428;2023-01-08T10:34:08;15.80;;;14.20;;
55222;SDS011;41090;48.632;12.428;2023-01-08T10:36:37;15.87;;;14.37;;
55222;SDS011;41090;48.632;12.428;2023-01-08T10:39:04;14.63;;;13.30;;
55222;SDS011;41090;48.632;12.428;2023-01-08T10:41:29;16.23;;;14.63;;
55222;SDS011;41090;48.632;12.428;2023-01-08T10:43:57;17.90;;;16.00;;
55222;SDS011;41090;48.632;12.428;2023-01-08T10:46:24;15.63;;;14.10;;
55222;SDS011;41090;48.632;12.428;2023-01-08T10:48:52;16.23;;;14.57;;
55222;SDS011;41090;48.632;12.428;2023-01-08T10:51:22;19.07;;;17.17;;
55222;SDS011;41090;48.632;12.428;2023-01-08T10:53:47;18.57;;;15.50;;
55222;SDS011;41090;48.632;12.428;2023-01-08T10:56:23;17.27;;;14.67;;
55222;SDS011;41090;48.632;12.428;2023-01-08T10:58:48;15.53;;;13.97;;
55222;SDS011;41090;48.632;12.428;2023-01-08T11:03:42;15.40;;;13.90;;
55222;SDS011;41090;48.632;12.428;2023-01-08T11:06:15;15.17;;;13.70;;
55222;SDS011;41090;48.632;12.428;2023-01-08T11:08:50;15.97;;;13.73;;
55222;SDS011;41090;48.632;12.428;2023-01-08T11:11:15;14.03;;;12.63;;
55222;SDS011;41090;48.632;12.428;2023-01-08T11:13:52;15.10;;;13.63;;
55222;SDS011;41090;48.632;12.428;2023-01-08T11:16:19;14.80;;;13.30;;
55222;SDS011;41090;48.632;12.428;2023-01-08T11:18:47;18.73;;;16.10;;
55222;SDS011;41090;48.632;12.428;2023-01-08T11:21:17;17.20;;;15.20;;
55222;SDS011;41090;48.632;12.428;2023-01-08T11:23:43;16.83;;;15.13;;
55222;SDS011;41090;48.632;12.428;2023-01-08T11:26:09;17.30;;;15.63;;
55222;SDS011;41090;48.632;12.428;2023-01-08T11:31:13;17.23;;;15.50;;
55222;SDS011;41090;48.632;12.428;2023-01-08T11:33:41;17.57;;;15.83;;
55222;SDS011;41090;48.632;12.428;2023-01-08T11:36:43;17.53;;;15.83;;
55222;SDS011;41090;48.632;12.428;2023-01-08T11:39:00;18.13;;;16.40;;
55222;SDS011;41090;48.632;12.428;2023-01-08T11:46:42;16.50;;;14.90;;
55222;SDS011;41090;48.632;12.428;2023-01-08T11:54:48;17.10;;;15.50;;
55222;SDS011;41090;48.632;12.428;2023-01-08T12:07:40;16.03;;;14.53;;
55222;SDS011;41090;48.632;12.428;2023-01-08T12:10:31;17.30;;;15.57;;
55222;SDS011;41090;48.632;12.428;2023-01-08T12:15:46;16.10;;;14.60;;
55222;SDS011;41090;48.632;12.428;2023-01-08T12:28:47;16.70;;;15.00;;
55222;SDS011;41090;48.632;12.428;2023-01-08T12:33:43;15.67;;;14.17;;
55222;SDS011;41090;48.632;12.428;2023-01-08T12:36:26;16.97;;;15.37;;
55222;SDS011;41090;48.632;12.428;2023-01-08T12:39:03;27.47;;;24.57;;
55222;SDS011;41090;48.632;12.428;2023-01-08T12:41:32;22.20;;;20.00;;
55222;SDS011;41090;48.632;12.428;2023-01-08T12:44:03;21.27;;;19.27;;
55222;SDS011;41090;48.632;12.428;2023-01-08T12:46:32;21.63;;;19.53;;
55222;SDS011;41090;48.632;12.428;2023-01-08T12:48:58;25.27;;;22.77;;
55222;SDS011;41090;48.632;12.428;2023-01-08T12:56:45;21.80;;;19.50;;
55222;SDS011;41090;48.632;12.428;2023-01-08T13:04:22;14.50;;;13.13;;
55222;SDS011;41090;48.632;12.428;2023-01-08T13:06:59;13.30;;;12.00;;
55222;SDS011;41090;48.632;12.428;2023-01-08T13:09:25;13.97;;;12.67;;
55222;SDS011;41090;48.632;12.428;2023-01-08T13:11:52;14.63;;;13.33;;
55222;SDS011;41090;48.632;12.428;2023-01-08T13:14:18;14.30;;;13.00;;
55222;SDS011;41090;48.632;12.428;2023-01-08T13:16:44;15.23;;;13.83;;
55222;SDS011;41090;48.632;12.428;2023-01-08T13:21:52;15.50;;;13.97;;
55222;SDS011;41090;48.632;12.428;2023-01-08T13:24:40;14.60;;;13.07;;
55222;SDS011;41090;48.632;12.428;2023-01-08T13:29:44;15.80;;;14.20;;
55222;SDS011;41090;48.632;12.428;2023-01-08T13:34:47;15.30;;;13.90;;
55222;SDS011;41090;48.632;12.428;2023-01-08T13:37:22;30.37;;;23.17;;
55222;SDS011;41090;48.632;12.428;2023-01-08T13:39:47;24.87;;;19.87;;
55222;SDS011;41090;48.632;12.428;2023-01-08T13:42:22;32.77;;;24.13;;
55222;SDS011;41090;48.632;12.428;2023-01-08T13:44:50;20.67;;;18.43;;
55222;SDS011;41090;48.632;12.428;2023-01-08T13:47:29;17.17;;;15.33;;
55222;SDS011;41090;48.632;12.428;2023-01-08T13:49:55;14.90;;;13.50;;
55222;SDS011;41090;48.632;12.428;2023-01-08T13:52:41;15.87;;;14.27;;
55222;SDS011;41090;48.632;12.428;2023-01-08T13:55:51;14.77;;;13.37;;
55222;SDS011;41090;48.632;12.428;2023-01-08T13:58:00;16.17;;;14.57;;
55222;SDS011;41090;48.632;12.428;2023-01-08T14:00:32;14.60;;;13.20;;
55222;SDS011;41090;48.632;12.428;2023-01-08T14:03:01;13.17;;;11.80;;
55222;SDS011;41090;48.632;12.428;2023-01-08T14:05:30;13.73;;;12.43;;
55222;SDS011;41090;48.632;12.428;2023-01-08T14:07:58;15.03;;;13.63;;
55222;SDS011;41090;48.632;12.428;2023-01-08T14:10:23;16.60;;;15.00;;
55222;SDS011;41090;48.632;12.428;2023-01-08T14:12:49;17.73;;;15.90;;
55222;SDS011;41090;48.632;12.428;2023-01-08T14:15:22;18.83;;;16.87;;
55222;SDS011;41090;48.632;12.428;2023-01-08T14:17:48;16.60;;;14.93;;
55222;SDS011;41090;48.632;12.428;2023-01-08T14:20:18;15.30;;;13.80;;
55222;SDS011;41090;48.632;12.428;2023-01-08T14:22:44;15.10;;;13.70;;
55222;SDS011;41090;48.632;12.428;2023-01-08T14:25:12;14.83;;;13.23;;
55222;SDS011;41090;48.632;12.428;2023-01-08T14:27:39;13.70;;;12.40;;
55222;SDS011;41090;48.632;12.428;2023-01-08T14:30:16;14.63;;;13.23;;
55222;SDS011;41090;48.632;12.428;2023-01-08T14:32:42;14.13;;;12.73;;
55222;SDS011;41090;48.632;12.428;2023-01-08T14:35:08;14.10;;;12.60;;
55222;SDS011;41090;48.632;12.428;2023-01-08T14:37:34;13.43;;;12.03;;
55222;SDS011;41090;48.632;12.428;2023-01-08T14:39:59;12.93;;;11.63;;
55222;SDS011;41090;48.632;12.428;2023-01-08T14:42:27;13.60;;;12.30;;
55222;SDS011;41090;48.632;12.428;2023-01-08T14:45:17;13.00;;;11.70;;
55222;SDS011;41090;48.632;12.428;2023-01-08T14:47:45;12.00;;;10.90;;
55222;SDS011;41090;48.632;12.428;2023-01-08T14:50:17;13.47;;;12.07;;
55222;SDS011;41090;48.632;12.428;2023-01-08T14:52:42;17.27;;;11.67;;
55222;SDS011;41090;48.632;12.428;2023-01-08T14:55:11;13.53;;;12.23;;
55222;SDS011;41090;48.632;12.428;2023-01-08T14:57:41;14.10;;;12.70;;
55222;SDS011;41090;48.632;12.428;2023-01-08T15:00:13;15.83;;;14.13;;
55222;SDS011;41090;48.632;12.428;2023-01-08T15:02:39;16.33;;;14.63;;
55222;SDS011;41090;48.632;12.428;2023-01-08T15:07:40;15.40;;;13.90;;
55222;SDS011;41090;48.632;12.428;2023-01-08T15:10:21;17.50;;;15.73;;
55222;SDS011;41090;48.632;12.428;2023-01-08T15:12:47;17.87;;;15.90;;
55222;SDS011;41090;48.632;12.428;2023-01-08T15:15:23;15.50;;;13.97;;
55222;SDS011;41090;48.632;12.428;2023-01-08T15:17:48;14.13;;;12.73;;
55222;SDS011;41090;48.632;12.428;2023-01-08T15:20:17;15.37;;;13.77;;
55222;SDS011;41090;48.632;12.428;2023-01-08T15:22:43;16.23;;;14.67;;
55222;SDS011;41090;48.632;12.428;2023-01-08T15:27:55;15.63;;;12.93;;
55222;SDS011;41090;48.632;12.428;2023-01-08T15:31:06;15.77;;;14.23;;